This is the latest recevied weather packets stored in our database for station/object N3WXO-1. If no packets are shown the sender has not sent any weather packets the latest 1 day(s).
| Time | Temp. | Humidity | Pressure | Rain* | Wind** | Luminosity | Snow |
|---|---|---|---|---|---|---|---|
| 1778011235 | 27.78° C | 39% | 1006.9 hPa | 0 mm | 0.89 m/s, 220° | 355 W/m² | - |
| 1778010920 | 27.22° C | 36% | 1007 hPa | 0 mm | 4.02 m/s, 248° | 158 W/m² | - |
| 1778010627 | 27.78° C | 36% | 1007.1 hPa | 0 mm | 4.02 m/s, 226° | 93 W/m² | - |
| 1778010314 | 27.78° C | 36% | 1007.3 hPa | 0 mm | 4.02 m/s, 229° | 450 W/m² | - |
| 1778010021 | 27.22° C | 37% | 1007.4 hPa | 0 mm | 3.58 m/s, 243° | 285 W/m² | - |
| 1778009729 | 27.22° C | 37% | 1007.6 hPa | 0 mm | 3.13 m/s, 232° | 341 W/m² | - |
| 1778009418 | 27.22° C | 38% | 1007.5 hPa | 0 mm | 3.58 m/s, 217° | 657 W/m² | - |
| 1778009125 | 27.22° C | 35% | 1007.6 hPa | 0 mm | 4.47 m/s, 229° | 246 W/m² | - |
| 1778008832 | 27.78° C | 37% | 1007.7 hPa | 0 mm | 3.13 m/s, 247° | 564 W/m² | - |
| 1778008545 | 27.78° C | 36% | 1007.6 hPa | 0 mm | 4.02 m/s, 208° | 751 W/m² | - |
| 1778008215 | 27.78° C | 34% | 1007.6 hPa | 0 mm | 5.81 m/s, 248° | 503 W/m² | - |
| 1778007920 | 27.78° C | 38% | 1007.5 hPa | 0 mm | 2.24 m/s, 231° | 137 W/m² | - |
| 1778007615 | 27.78° C | 36% | 1007.8 hPa | 0 mm | 4.47 m/s, 217° | 128 W/m² | - |
| 1778004321 | 27.78° C | 40% | 1008.3 hPa | 0 mm | 3.58 m/s, 228° | 91 W/m² | - |
| 1778004035 | 27.22° C | 41% | 1008.4 hPa | 0 mm | 3.13 m/s, 211° | 90 W/m² | - |
| 1778003722 | 27.22° C | 39% | 1008.4 hPa | 0 mm | 3.13 m/s, 266° | 90 W/m² | - |
| 1778003428 | 27.22° C | 40% | 1008.5 hPa | 0 mm | 4.02 m/s, 230° | 114 W/m² | - |
| 1778003122 | 27.22° C | 41% | 1008.6 hPa | 0 mm | 2.68 m/s, 224° | 121 W/m² | - |
| 1778002815 | 26.67° C | 40% | 1008.8 hPa | 0 mm | 2.68 m/s, 242° | 134 W/m² | - |
| 1778002524 | 26.67° C | 40% | 1008.8 hPa | 0 mm | 4.02 m/s, 188° | 786 W/m² | - |
| 1778002215 | 26.11° C | 39% | 1008.7 hPa | 0 mm | 5.36 m/s, 153° | 703 W/m² | - |
| 1778001922 | 26.11° C | 46% | 1008.7 hPa | 0 mm | 2.68 m/s, 257° | 144 W/m² | - |
| 1778001629 | 25.56° C | 47% | 1008.8 hPa | 0 mm | 1.79 m/s, 205° | 761 W/m² | - |
| 1778001321 | 25.56° C | 47% | 1008.9 hPa | 0 mm | 1.79 m/s, 260° | 169 W/m² | - |
| 1778001023 | 25.56° C | 47% | 1008.8 hPa | 0 mm | 2.24 m/s, 234° | 130 W/m² | - |
* Rain latest hour (hover to see other rain measurements)
** Current wind speed in m/s (hover to see current wind gust speed)